Glenwood, Illinois
Current Conditions -  °F | °C
As of 2:15 AM on Sunday 26 Oct 2014 (Local Time) from KIGQ Reporting Station
Clear Clear  
Wind Chill: 42°   Ceiling: Unl
Heat Index: 42°   Visibility: 10mi
Dew Point: 32°   Wind: 3mph
Humidity: 68%   Direction: 300°WNW
Pressure: 29.99"   Gusts: NA
Location:  41.55°N, 87.61°W
Report Text: KIGQ 260715Z AUTO 30003KT 10SM CLR 06/00 A2999 RMK AO2 T00550000
Loading
Personal Weather Stations






























Interactive Weather Map
Tropical Storm Tracking
New forecast layout! Learn more

10-Day Weather Forecast

Advertisements
Track Severe Weather on mobile